Airfield :
LOGIN :

Register | Disclaimer

   EN    FR    IT 

 










Legend :    VFR   Marginal VFR   IFR   Intensive IFR   Very Intensive IFR
Visi :
Ceiling :
>= 8 km
>= 3000ft
5 to 8 km
1000 to 3000 ft
1500m to 5 km
500 to 1000 ft
800 to 1500m
200 to 500 ft
< 800m
< 200 ft
Symbols :   Thunderstorms  Fog  Heavy snow  Heavy precipitations  Wind > 20 kt
SIGMETs :     Misc.  Thunderstorms  Icing  Turbulence  Mountain Waves  Volcanic Ashes







- Airport Elevation : 228 ft
- IATA code : OPO


LPPR - Porto Fr. Sa Carneiro

CURRENT METAR :
  • 200900Z 12012KT CAVOK 13/M00 Q1023

EXPIRED METARs :
  • 200830Z 12012KT CAVOK 11/M01 Q1022
  • 200800Z 12009KT 090V160 CAVOK 11/M01 Q1022
  • 200730Z 10009KT CAVOK 11/M02 Q1022
  • 200700Z 10009KT CAVOK 12/M01 Q1022
  • 200630Z 12010KT CAVOK 11/M01 Q1022

TAF TAF LPPR
Valid from the 20 at 06:00 until the 21 at 06:00 UTC


200500Z 2006/2106 11010KT CAVOK
BECMG 2012/2014 VRB03KT
BECMG 2020/2022 10007KT
No reported NOTAMs for that airfield.



MET'MAP, your aeronautical weather chart ! - Copyright ORBIFLY December 2007 - Disclaimer

ORBIFLY MET'MAP TEAM :

Programming & Development : Alexandra Zaïnal
Concept & Development : Baudouin d'Aumeries
Co-Development & Prog : Marc-Olivier Méhu
Technical & hardware support : Manuel Goepfert

Contact : metmap@orbifly.com




SOURCES & CREDITS :

   NOAA